Time;durP1;ratioP1;P1;durP2;ratioP2;P2;SDS_P1;SDS_P2;PMS_P1;PMS_P2;Temp;Humidity;BMP_temperature;BMP_pressure;BME280_temperature;BME280_humidity;BME280_pressure;Samples;Min_cycle;Max_cycle;Signal;HPM_P1;HPM_P2
2022/12/14 00:00:48;;;;;;;;;47.25;38.50;;;;;5.39;52.34;49464.97;5003872;28;48171;-91
2022/12/14 00:03:14;;;;;;;;;37.00;31.50;;;;;5.40;52.04;49220.13;5010652;28;45611;-90
2022/12/14 00:05:40;;;;;;;;;42.75;35.75;;;;;5.20;52.23;49221.88;4994809;28;45410;-92
2022/12/14 00:08:06;;;;;;;;;37.25;34.25;;;;;5.39;52.13;48773.56;4989149;28;45591;-89
2022/12/14 00:10:33;;;;;;;;;40.25;37.50;;;;;5.40;51.96;48964.44;5015896;28;45458;-90
2022/12/14 00:12:59;;;;;;;;;40.25;34.50;;;;;4.52;52.03;48687.31;5016993;28;45345;-90
2022/12/14 00:15:25;;;;;;;;;40.50;36.50;;;;;5.40;51.99;48523.56;4998470;28;45300;-90
2022/12/14 00:17:51;;;;;;;;;35.00;34.50;;;;;5.24;51.93;48505.03;5014245;28;45618;-90
2022/12/14 00:20:16;;;;;;;;;44.50;37.00;;;;;4.96;52.34;48791.69;5017070;28;46297;-89
2022/12/14 00:22:42;;;;;;;;;39.25;35.00;;;;;5.41;51.85;48657.47;4995954;28;46181;-90
2022/12/14 00:25:07;;;;;;;;;35.75;35.00;;;;;4.79;52.37;48452.13;5007681;28;45495;-90
2022/12/14 00:27:33;;;;;;;;;37.75;35.00;;;;;4.95;51.99;48493.66;5012020;28;45448;-89
2022/12/14 00:29:58;;;;;;;;;33.25;29.00;;;;;5.04;51.99;48212.41;5009754;28;45648;-90
2022/12/14 00:32:24;;;;;;;;;36.50;34.00;;;;;4.91;52.08;48365.09;5012410;28;45999;-90
2022/12/14 00:34:49;;;;;;;;;39.25;32.00;;;;;4.99;52.13;48009.63;5016535;28;45504;-90
2022/12/14 00:37:15;;;;;;;;;32.25;30.50;;;;;5.07;52.36;48052.91;5011046;28;45472;-90
2022/12/14 00:39:40;;;;;;;;;37.25;32.75;;;;;4.99;52.48;48254.66;5015377;28;46397;-90
2022/12/14 00:42:06;;;;;;;;;37.25;33.50;;;;;4.36;51.94;48176.16;4993697;28;45493;-89
2022/12/14 00:44:32;;;;;;;;;30.25;27.25;;;;;4.86;52.33;47796.16;5016721;28;45663;-91
2022/12/14 00:46:57;;;;;;;;;35.50;34.00;;;;;5.10;52.21;48034.16;5001527;28;45584;-92
2022/12/14 00:49:22;;;;;;;;;36.50;32.25;;;;;5.13;52.47;47697.78;5018075;28;45535;-92
2022/12/14 00:51:48;;;;;;;;;34.75;31.25;;;;;5.00;52.12;47799.75;5004746;28;45470;-92
2022/12/14 00:54:13;;;;;;;;;34.25;28.50;;;;;4.80;52.22;47756.78;4991895;28;45534;-92
2022/12/14 00:56:39;;;;;;;;;32.00;30.25;;;;;4.37;52.13;48005.13;5010107;28;45322;-92
2022/12/14 00:59:04;;;;;;;;;36.00;30.50;;;;;5.38;52.39;48123.16;4995080;28;47490;-93
2022/12/14 01:01:29;;;;;;;;;38.25;34.00;;;;;4.75;51.88;47843.75;5001770;28;46680;-92
2022/12/14 01:04:15;;;;;;;;;36.00;30.00;;;;;4.65;52.24;47398.47;5013888;28;45190;-92
2022/12/14 01:06:42;;;;;;;;;42.25;35.25;;;;;5.21;52.26;47798.81;4999556;28;45639;-92
2022/12/14 01:09:08;;;;;;;;;39.75;31.00;;;;;5.42;52.15;47586.22;4997620;28;48354;-92
2022/12/14 01:11:33;;;;;;;;;36.25;29.00;;;;;5.17;52.09;47800.25;5005705;28;45634;-92
2022/12/14 01:13:59;;;;;;;;;36.25;30.25;;;;;4.17;52.58;47757.31;5000518;28;45382;-92
2022/12/14 01:16:24;;;;;;;;;33.25;30.25;;;;;5.36;52.16;47688.53;5033639;28;45882;-90
2022/12/14 01:18:49;;;;;;;;;36.00;29.75;;;;;4.85;52.24;47565.56;5001082;28;47082;-94
2022/12/14 01:21:18;;;;;;;;;35.50;28.50;;;;;5.34;51.99;47717.69;5017458;28;45789;-94
2022/12/14 01:23:44;;;;;;;;;34.25;32.50;;;;;5.46;52.15;47535.22;5031857;28;45381;-95
2022/12/14 01:26:12;;;;;;;;;37.25;34.25;;;;;5.45;51.80;47763.91;5020360;28;45328;-95
2022/12/14 01:28:37;;;;;;;;;27.50;22.50;;;;;5.45;52.18;47740.03;5038904;28;47347;-94
2022/12/14 01:31:11;;;;;;;;;34.50;32.00;;;;;4.47;52.03;47151.22;5012901;28;45340;-93
2022/12/14 01:33:37;;;;;;;;;34.25;29.75;;;;;5.47;52.21;47330.00;5053760;28;45421;-92
2022/12/14 01:36:08;;;;;;;;;32.75;28.50;;;;;5.31;51.87;47185.81;5051520;28;45527;-91
2022/12/14 01:38:34;;;;;;;;;29.25;29.25;;;;;5.52;51.88;47359.44;5016997;28;49095;-93
2022/12/14 01:41:00;;;;;;;;;31.25;29.25;;;;;5.31;52.07;47556.09;5012546;28;46090;-92
2022/12/14 01:43:46;;;;;;;;;32.00;28.50;;;;;5.07;51.67;47781.78;5018585;28;45450;-91
2022/12/14 01:46:12;;;;;;;;;26.00;24.75;;;;;5.07;51.95;47435.09;5027895;28;45410;-92
2022/12/14 01:48:38;;;;;;;;;29.75;28.25;;;;;5.35;51.94;47338.22;5033681;28;47483;-92
2022/12/14 01:51:03;;;;;;;;;34.00;29.25;;;;;5.29;52.12;47377.94;5027446;28;45252;-92
2022/12/14 01:53:29;;;;;;;;;27.25;25.00;;;;;5.49;52.53;45865.69;5020682;28;45316;-93
2022/12/14 01:55:55;;;;;;;;;27.50;27.00;;;;;5.51;52.92;44845.34;5019737;28;46756;-93
2022/12/14 01:58:23;;;;;;;;;31.00;26.00;;;;;5.53;53.81;42342.19;5012109;28;47183;-93
2022/12/14 02:00:53;;;;;;;;;31.50;29.25;;;;;5.32;53.84;42126.19;5017307;28;45410;-92
2022/12/14 02:03:24;;;;;;;;;35.75;26.25;;;;;5.20;54.15;41495.34;5038680;28;45408;-93
2022/12/14 02:05:57;;;;;;;;;30.75;27.50;;;;;5.37;54.82;39172.88;5013010;28;46101;-93
2022/12/14 02:08:24;;;;;;;;;30.75;27.00;;;;;5.40;55.15;37759.09;5033250;28;48354;-92
2022/12/14 02:10:52;;;;;;;;;33.25;30.75;;;;;5.04;55.20;37142.97;5029935;28;45519;-93
2022/12/14 02:13:25;;;;;;;;;29.50;23.50;;;;;5.45;55.84;35504.78;5021087;28;45308;-94
2022/12/14 02:15:51;;;;;;;;;28.00;26.00;;;;;5.24;55.58;34493.94;5037120;28;45560;-93
2022/12/14 02:18:21;;;;;;;;;31.25;26.50;;;;;5.44;55.81;34505.78;5017850;28;47629;-94
2022/12/14 02:21:05;;;;;;;;;29.00;26.00;;;;;5.40;55.96;32507.44;5029611;28;45487;-93
2022/12/14 02:23:43;;;;;;;;;23.00;22.25;;;;;5.39;56.45;31177.13;5051457;28;45402;-93
2022/12/14 02:26:20;;;;;;;;;28.75;27.00;;;;;5.36;57.23;29181.13;5019885;28;46340;-93
2022/12/14 02:29:15;;;;;;;;;35.75;33.75;;;;;5.35;57.74;27519.72;5011212;28;47388;-93
2022/12/14 02:32:09;;;;;;;;;31.00;29.00;;;;;5.33;57.75;25526.63;5012187;28;45855;-92
2022/12/14 02:35:02;;;;;;;;;31.50;31.50;;;;;5.19;59.03;22534.94;5018960;28;45515;-92
2022/12/14 02:37:42;;;;;;;;;29.75;28.25;;;;;5.19;59.11;21208.56;5000958;28;45439;-93
2022/12/14 02:40:50;;;;;;;;;31.25;28.75;;;;;5.13;59.11;20874.72;5019279;28;47410;-92
2022/12/14 02:43:22;;;;;;;;;32.75;28.00;;;;;4.86;59.58;19539.75;5007588;28;46315;-92
2022/12/14 02:46:23;;;;;;;;;30.25;28.00;;;;;5.18;60.27;17563.63;4985580;28;45330;-95
2022/12/14 02:49:12;;;;;;;;;37.75;32.75;;;;;5.17;59.99;16239.00;4956069;28;45539;-94
2022/12/14 02:51:56;;;;;;;;;35.75;31.50;;;;;5.14;60.32;15575.88;4939315;28;48654;-93
2022/12/14 02:54:37;;;;;;;;;37.25;32.00;;;;;5.12;60.93;13259.19;4941654;28;45357;-95
2022/12/14 02:57:20;;;;;;;;;21.75;18.75;;;;;5.06;61.14;12927.13;4944454;28;45362;-94
2022/12/14 02:59:52;;;;;;;;;32.75;30.50;;;;;4.95;61.01;11601.84;4944361;28;45446;-94
2022/12/14 03:02:18;;;;;;;;;34.50;31.50;;;;;4.60;61.57;10272.34;4944434;28;48347;-94
2022/12/14 03:04:47;;;;;;;;;32.75;31.25;;;;;4.06;61.01;11250.72;4955917;28;45337;-94
2022/12/14 03:07:53;;;;;;;;;32.25;24.50;;;;;5.04;61.25;9951.41;4944361;28;45727;-95
2022/12/14 03:10:39;;;;;;;;;34.25;28.25;;;;;5.03;61.35;9620.69;4902668;28;45474;-92
2022/12/14 03:13:08;;;;;;;;;25.00;24.00;;;;;5.03;61.64;9290.28;4913789;28;47279;-91
2022/12/14 03:15:38;;;;;;;;;33.00;31.00;;;;;4.80;61.72;8295.16;4904825;28;45611;-94
2022/12/14 03:18:06;;;;;;;;;29.50;27.75;;;;;4.81;61.86;8625.44;4914518;28;45446;-88
2022/12/14 03:20:34;;;;;;;;;30.50;29.50;;;;;5.02;60.90;8959.81;4908633;28;46079;-90
2022/12/14 03:23:11;;;;;;;;;33.50;28.50;;;;;4.56;60.85;8950.84;4941075;28;45717;-90
2022/12/14 03:25:46;;;;;;;;;28.50;26.50;;;;;5.03;61.37;8629.66;4940730;28;45528;-90
2022/12/14 03:28:17;;;;;;;;;27.75;25.50;;;;;5.02;61.41;8959.72;4938539;28;45627;-90
2022/12/14 03:30:50;;;;;;;;;34.00;32.25;;;;;4.99;60.83;8959.13;4936967;28;45459;-88
2022/12/14 03:33:20;;;;;;;;;31.25;28.00;;;;;4.78;61.12;8624.97;4931541;28;47526;-87
2022/12/14 03:35:57;;;;;;;;;38.75;30.75;;;;;3.87;61.02;8607.84;4949760;28;45414;-88
2022/12/14 03:38:40;;;;;;;;;30.25;25.00;;;;;4.68;61.36;7962.81;4947234;28;45596;-89
2022/12/14 03:41:08;;;;;;;;;36.25;28.75;;;;;4.97;61.52;7967.88;4948797;28;45785;-90
2022/12/14 03:44:02;;;;;;;;;34.50;26.25;;;;;4.98;61.52;7968.06;4948470;28;46455;-89
2022/12/14 03:46:48;;;;;;;;;31.75;31.75;;;;;4.99;61.29;7307.81;4963258;28;45686;-89
2022/12/14 03:49:33;;;;;;;;;31.25;24.50;;;;;4.99;62.12;6647.47;5012344;28;45573;-89
2022/12/14 03:52:20;;;;;;;;;30.75;26.25;;;;;4.49;61.07;7299.50;5017575;28;45434;-90
2022/12/14 03:55:13;;;;;;;;;30.75;28.25;;;;;4.97;61.37;6977.38;4993197;28;47133;-89
2022/12/14 03:57:57;;;;;;;;;38.25;33.50;;;;;4.98;61.82;6317.19;4999422;28;46193;-89
2022/12/14 04:00:24;;;;;;;;;36.50;31.00;;;;;4.49;61.75;6309.84;4987922;28;45489;-89
2022/12/14 04:03:08;;;;;;;;;30.75;28.75;;;;;4.15;62.18;5315.94;5016178;28;45572;-89
2022/12/14 04:05:47;;;;;;;;;33.25;32.00;;;;;4.15;62.34;5315.94;5006795;28;48636;-90
2022/12/14 04:08:25;;;;;;;;;31.00;27.50;;;;;4.78;61.62;5984.31;5013617;28;45335;-89
2022/12/14 04:19:41;;;;;;;;;31.00;29.00;;;;;4.89;62.11;5325.84;5014997;28;45457;-89
2022/12/14 04:22:18;;;;;;;;;34.75;31.50;;;;;4.49;61.64;5650.28;5035491;28;45442;-88
2022/12/14 04:27:46;;;;;;;;;30.00;29.50;;;;;4.85;62.21;4995.38;5035895;28;45589;-90
2022/12/14 04:30:12;;;;;;;;;30.00;28.25;;;;;4.83;62.36;4665.22;5037273;28;45471;-90
2022/12/14 04:33:45;;;;;;;;;35.50;30.50;;;;;4.94;61.92;4996.56;5021126;28;45457;-91
2022/12/14 04:35:48;;;;;;;;;24.00;24.00;;;;;4.29;61.81;5317.78;5043734;28;45521;-90
2022/12/14 04:38:26;;;;;;;;;36.75;29.00;;;;;4.93;62.01;4996.34;5014906;28;47711;-90
2022/12/14 04:40:56;;;;;;;;;32.75;29.00;;;;;4.94;61.98;4666.53;5009542;28;46865;-90
2022/12/14 04:43:34;;;;;;;;;29.75;28.50;;;;;4.40;62.01;4659.94;5043541;28;45547;-90
2022/12/14 04:46:17;;;;;;;;;32.75;26.00;;;;;4.93;61.92;5326.41;5016003;28;45351;-89
2022/12/14 04:48:42;;;;;;;;;33.25;27.50;;;;;4.92;62.37;4336.44;5035529;28;46155;-89
2022/12/14 04:51:26;;;;;;;;;30.25;28.00;;;;;4.95;61.89;4336.72;5016802;28;45507;-89
2022/12/14 04:53:58;;;;;;;;;31.50;25.50;;;;;4.73;62.07;4663.97;5023330;28;45435;-90
2022/12/14 04:56:28;;;;;;;;;31.25;27.25;;;;;4.93;62.06;4666.41;5036873;28;45510;-91
2022/12/14 04:58:54;;;;;;;;;37.50;29.25;;;;;4.68;61.96;4003.78;5016114;28;48723;-90
2022/12/14 05:01:29;;;;;;;;;29.50;25.75;;;;;4.91;62.05;4666.22;5012770;28;45574;-91
2022/12/14 05:04:13;;;;;;;;;34.50;30.50;;;;;4.88;62.38;3676.25;5039805;28;46513;-89
2022/12/14 05:06:57;;;;;;;;;33.75;31.00;;;;;4.89;62.63;3676.34;5036951;28;45659;-89
2022/12/14 05:09:31;;;;;;;;;30.25;29.00;;;;;4.54;62.51;3672.63;5037420;28;45526;-88
2022/12/14 05:12:11;;;;;;;;;35.00;27.50;;;;;4.46;62.05;3671.72;5034765;28;45558;-88
2022/12/14 05:14:50;;;;;;;;;28.50;26.75;;;;;4.27;62.31;3669.69;5017510;28;45423;-88
2022/12/14 05:17:16;;;;;;;;;32.00;29.75;;;;;4.44;62.33;4330.84;5020562;28;45627;-88
2022/12/14 05:19:46;;;;;;;;;32.00;30.00;;;;;4.89;61.99;4006.19;5033294;28;45572;-90
2022/12/14 05:22:12;;;;;;;;;27.75;26.75;;;;;4.90;62.69;3016.84;5027963;28;45557;-91
2022/12/14 05:24:38;;;;;;;;;31.25;29.00;;;;;4.61;62.22;3343.72;5017100;28;45412;-91
2022/12/14 05:27:03;;;;;;;;;32.75;29.00;;;;;3.94;62.30;3007.66;5027557;28;45426;-92
2022/12/14 05:29:29;;;;;;;;;27.25;24.00;;;;;3.32;62.41;3001.69;5014860;28;47238;-91
2022/12/14 05:31:54;;;;;;;;;30.75;27.50;;;;;4.73;62.28;3674.66;5021769;28;45526;-91
2022/12/14 05:34:20;;;;;;;;;29.50;24.25;;;;;4.56;62.60;3013.53;5010207;28;47050;-90
2022/12/14 05:36:45;;;;;;;;;32.75;29.50;;;;;4.76;62.42;3015.47;5015879;28;45422;-89
2022/12/14 05:39:11;;;;;;;;;34.00;29.25;;;;;4.73;62.47;3344.88;5013288;28;45567;-89
2022/12/14 05:41:36;;;;;;;;;33.25;32.00;;;;;4.92;62.37;2687.25;5009527;28;47259;-89
2022/12/14 05:44:02;;;;;;;;;30.75;28.25;;;;;4.38;62.87;2352.94;5006710;28;45791;-88
2022/12/14 05:46:27;;;;;;;;;11.75;9.00;;;;;4.92;62.40;3017.03;5011286;28;45644;-89
2022/12/14 05:48:53;;;;;;;;;23.50;22.25;;;;;4.64;62.60;3014.34;4999497;28;46357;-89
2022/12/14 05:51:19;;;;;;;;;22.50;22.00;;;;;4.64;62.82;2355.16;5033768;28;45608;-89
2022/12/14 05:53:44;;;;;;;;;33.00;31.50;;;;;4.72;62.56;2685.44;5015203;28;45411;-89
2022/12/14 05:56:11;;;;;;;;;28.00;22.75;;;;;4.60;62.22;2684.38;5004963;28;45444;-90
2022/12/14 05:58:36;;;;;;;;;30.50;23.25;;;;;4.86;62.43;3016.44;5013953;28;47431;-89
2022/12/14 06:01:07;;;;;;;;;33.00;31.50;;;;;4.62;62.53;2354.94;5007693;28;45430;-91
2022/12/14 06:03:33;;;;;;;;;32.50;27.75;;;;;4.46;62.43;2683.03;5015392;28;45613;-92
2022/12/14 06:06:16;;;;;;;;;32.75;29.50;;;;;4.04;62.50;2679.25;5008437;28;45509;-91
2022/12/14 06:08:44;;;;;;;;;30.00;23.50;;;;;4.97;62.71;2357.91;5023985;28;47337;-88
2022/12/14 06:11:15;;;;;;;;;26.75;26.75;;;;;4.95;62.80;2028.03;5018093;28;45514;-88
2022/12/14 06:13:43;;;;;;;;;28.75;27.25;;;;;4.84;62.39;2686.53;5016820;28;45553;-91
2022/12/14 06:16:22;;;;;;;;;33.50;28.75;;;;;4.98;62.88;2028.25;5003071;28;45511;-90
2022/12/14 06:18:49;;;;;;;;;36.25;31.75;;;;;4.70;62.90;2026.00;5005922;28;47149;-90
2022/12/14 06:21:17;;;;;;;;;28.00;26.50;;;;;4.99;62.45;2358.09;5016273;28;45289;-90
2022/12/14 06:23:42;;;;;;;;;36.50;28.50;;;;;4.99;62.54;2358.13;5035412;28;45605;-92
2022/12/14 06:26:09;;;;;;;;;28.75;26.25;;;;;4.70;62.29;2355.59;5038430;28;45489;-91
2022/12/14 06:28:35;;;;;;;;;32.00;27.00;;;;;5.02;62.82;2028.56;5017442;28;48678;-91
2022/12/14 06:31:00;;;;;;;;;29.75;25.00;;;;;4.96;62.89;1039.03;5008172;28;45888;-91
2022/12/14 06:33:26;;;;;;;;;29.25;26.50;;;;;5.03;62.73;2028.66;5017330;28;45304;-93
2022/12/14 06:35:52;;;;;;;;;24.50;18.25;;;;;4.84;62.45;2027.13;5008611;28;45625;-93
2022/12/14 06:38:17;;;;;;;;;27.50;22.50;;;;;5.04;63.12;1039.56;5015832;28;47082;-91
2022/12/14 06:40:43;;;;;;;;;33.75;31.00;;;;;5.07;62.45;1699.22;5039780;28;45418;-91
2022/12/14 06:43:08;;;;;;;;;37.50;29.00;;;;;4.75;62.56;1367.22;5032922;28;45552;-90
2022/12/14 06:45:34;;;;;;;;;26.25;26.25;;;;;4.78;62.90;1367.47;5013605;28;45763;-92
2022/12/14 06:47:59;;;;;;;;;37.00;31.50;;;;;5.10;63.28;710.22;5013836;28;47249;-92
2022/12/14 06:50:26;;;;;;;;;28.75;23.00;;;;;4.70;63.17;378.41;5038565;28;45417;-91
2022/12/14 06:52:52;;;;;;;;;35.75;31.75;;;;;4.82;62.74;708.59;5012641;28;45365;-93
2022/12/14 06:55:17;;;;;;;;;29.00;25.50;;;;;5.08;63.00;1039.84;5015722;28;45610;-93
2022/12/14 06:57:43;;;;;;;;;31.00;26.25;;;;;4.22;62.94;705.13;5020126;28;47917;-93
2022/12/14 07:00:12;;;;;;;;;32.75;27.75;;;;;4.87;63.17;379.34;5018117;28;45534;-93
2022/12/14 07:02:38;;;;;;;;;30.00;26.75;;;;;4.47;63.08;-281.38;5015446;28;46901;-91
2022/12/14 07:05:05;;;;;;;;;30.25;29.75;;;;;4.65;62.94;378.19;5017353;28;45518;-92
2022/12/14 07:07:32;;;;;;;;;36.75;32.00;;;;;4.85;63.27;-279.75;5013950;28;47836;-92
2022/12/14 07:09:58;;;;;;;;;36.50;33.25;;;;;4.77;63.30;-609.50;5016831;28;45530;-92
2022/12/14 07:12:23;;;;;;;;;39.50;36.75;;;;;4.43;63.05;-281.53;5015416;28;45524;-92
2022/12/14 07:14:49;;;;;;;;;32.00;28.75;;;;;3.59;63.11;43.72;5030968;28;45572;-92
2022/12/14 07:17:14;;;;;;;;;32.50;32.25;;;;;3.67;62.94;44.06;5017943;28;47239;-92
2022/12/14 07:19:41;;;;;;;;;34.50;29.50;;;;;3.41;63.48;42.81;5021051;28;45675;-92
2022/12/14 07:22:07;;;;;;;;;34.00;26.75;;;;;5.02;63.16;-938.09;5027658;28;45491;-93
2022/12/14 07:24:32;;;;;;;;;33.00;28.25;;;;;4.61;63.38;-610.09;5040438;28;45605;-92
2022/12/14 07:26:59;;;;;;;;;35.50;30.25;;;;;4.00;63.69;-941.34;5004237;28;47159;-91
2022/12/14 07:29:24;;;;;;;;;30.00;30.00;;;;;3.79;63.78;-1599.66;5018802;28;45415;-93
2022/12/14 07:31:50;;;;;;;;;31.75;28.00;;;;;4.78;64.01;-1926.88;5003053;28;45412;-92
2022/12/14 07:34:15;;;;;;;;;39.25;34.00;;;;;4.78;64.08;-2585.41;5014036;28;45722;-90
2022/12/14 07:36:42;;;;;;;;;35.25;33.75;;;;;4.36;63.82;-1598.47;5028200;28;48525;-91
2022/12/14 07:39:13;;;;;;;;;36.75;33.50;;;;;4.96;64.23;-1926.59;5015287;28;45394;-90
2022/12/14 07:41:38;;;;;;;;;47.25;39.25;;;;;4.64;64.58;-2256.31;5040910;28;45328;-90
2022/12/14 07:44:04;;;;;;;;;40.50;37.00;;;;;4.35;64.40;-2914.63;5017018;28;45325;-91
2022/12/14 07:46:33;;;;;;;;;43.25;38.50;;;;;4.96;64.25;-3243.91;5014006;28;47321;-91
2022/12/14 07:49:00;;;;;;;;;39.00;32.25;;;;;4.05;64.00;-2585.78;5009057;28;45599;-91
2022/12/14 07:51:28;;;;;;;;;80.00;63.00;;;;;3.69;64.15;-3243.22;5018184;28;45551;-92
2022/12/14 07:53:54;;;;;;;;;24.75;24.75;;;;;3.98;64.07;-2585.81;5003367;28;45653;-96
2022/12/14 07:56:22;;;;;;;;;26.75;21.50;;;;;4.84;64.68;-3902.22;5017450;28;47398;-94
2022/12/14 07:58:48;;;;;;;;;33.75;29.50;;;;;4.15;63.93;-2914.63;5027168;28;45429;-90
2022/12/14 08:01:18;;;;;;;;;27.50;24.75;;;;;4.97;63.70;-2255.94;5017238;28;45489;-92
2022/12/14 08:03:47;;;;;;;;;38.25;35.25;;;;;4.36;63.73;-1927.56;5012599;28;45386;-93
2022/12/14 08:06:14;;;;;;;;;39.50;35.50;;;;;4.18;63.69;-2256.78;5013653;28;47084;-92
2022/12/14 08:08:39;;;;;;;;;36.00;32.50;;;;;3.97;63.47;-2257.00;5014094;28;46146;-93
2022/12/14 08:11:06;;;;;;;;;33.50;31.50;;;;;4.69;63.30;-1597.78;5014136;28;45505;-95
2022/12/14 08:13:32;;;;;;;;;33.00;25.00;;;;;4.02;63.53;-2585.81;5029288;28;45317;-96
2022/12/14 08:16:06;;;;;;;;;35.25;23.75;;;;;2.87;63.12;-1929.88;5040141;28;47855;-96
2022/12/14 08:18:32;;;;;;;;;37.00;32.00;;;;;4.38;63.40;-2585.63;5033675;28;45390;-96
2022/12/14 08:20:59;;;;;;;;;40.50;30.00;;;;;4.06;63.66;-1928.03;5017706;28;45249;-94
2022/12/14 08:23:24;;;;;;;;;32.50;28.75;;;;;3.41;63.36;-2586.09;5015308;28;45261;-94
2022/12/14 08:25:54;;;;;;;;;32.75;28.75;;;;;3.96;63.08;-2257.03;5047197;28;47925;-94
2022/12/14 08:28:21;;;;;;;;;32.00;28.75;;;;;5.14;63.75;-2255.78;5023251;28;45296;-96
2022/12/14 08:30:46;;;;;;;;;37.25;30.50;;;;;5.13;63.44;-1926.31;5013284;28;45569;-94
2022/12/14 08:33:11;;;;;;;;;26.50;23.00;;;;;5.15;63.58;-2585.19;5038942;28;45581;-94
2022/12/14 08:35:37;;;;;;;;;34.25;33.50;;;;;4.98;62.70;-1926.56;5007538;28;47988;-92
2022/12/14 08:38:02;;;;;;;;;35.50;28.75;;;;;4.80;62.82;-1597.53;5009774;28;46187;-90
2022/12/14 08:40:28;;;;;;;;;34.50;32.75;;;;;4.63;62.28;-939.34;5030145;28;45348;-88
2022/12/14 08:42:53;;;;;;;;;30.00;27.25;;;;;4.88;62.49;-938.56;5040675;28;45384;-90
2022/12/14 08:45:19;;;;;;;;;29.25;27.50;;;;;4.67;61.97;-280.53;5032034;28;45807;-90
2022/12/14 08:47:45;;;;;;;;;33.25;29.50;;;;;4.91;61.65;-279.53;5011068;28;46530;-90
2022/12/14 08:50:11;;;;;;;;;38.75;31.00;;;;;5.34;62.06;-277.66;5030288;28;45743;-89
2022/12/14 08:52:37;;;;;;;;;33.75;31.75;;;;;5.15;62.21;-1267.25;5026544;28;45662;-89
2022/12/14 08:55:04;;;;;;;;;34.50;29.50;;;;;5.25;62.44;-1926.13;5026704;28;46131;-90
2022/12/14 08:57:29;;;;;;;;;33.25;30.50;;;;;4.50;61.95;-610.53;5021266;28;45514;-92
2022/12/14 08:59:54;;;;;;;;;41.25;31.00;;;;;4.25;62.59;-1598.72;5015087;28;45560;-94
2022/12/14 09:02:20;;;;;;;;;26.75;26.50;;;;;4.40;62.52;-1927.50;5018141;28;45363;-88
2022/12/14 09:04:45;;;;;;;;;41.00;33.50;;;;;4.77;61.87;-1268.25;5028978;28;46408;-88
2022/12/14 09:07:10;;;;;;;;;32.50;32.25;;;;;3.98;61.55;-941.44;5016349;28;45388;-89
2022/12/14 09:09:36;;;;;;;;;36.00;33.25;;;;;5.53;61.96;-936.47;5046407;28;45512;-90
2022/12/14 09:12:05;;;;;;;;;32.75;31.25;;;;;5.36;62.34;-1596.31;5027937;28;45388;-89
2022/12/14 09:14:32;;;;;;;;;26.00;26.00;;;;;5.42;62.63;-1596.19;5049955;28;47213;-93
2022/12/14 09:16:57;;;;;;;;;31.25;31.00;;;;;5.60;61.86;-1925.53;5022224;28;46110;-90
2022/12/14 09:19:23;;;;;;;;;39.00;31.25;;;;;4.92;62.13;-1597.28;5034011;28;45518;-91
2022/12/14 09:21:48;;;;;;;;;37.75;35.00;;;;;5.76;61.53;-935.72;5015488;28;45435;-92
2022/12/14 09:24:14;;;;;;;;;34.25;32.75;;;;;5.80;61.27;-935.59;5030412;28;48049;-91
2022/12/14 09:26:39;;;;;;;;;32.50;30.25;;;;;5.15;61.88;-1267.25;5035830;28;45374;-90
2022/12/14 09:29:05;;;;;;;;;48.75;39.25;;;;;5.51;61.62;-1266.28;5017206;28;45360;-90
2022/12/14 09:31:30;;;;;;;;;31.75;29.00;;;;;5.90;60.92;-605.25;5016718;28;45423;-89
2022/12/14 09:33:55;;;;;;;;;44.25;35.50;;;;;5.64;61.18;-606.25;5028789;28;47023;-88
2022/12/14 09:36:24;;;;;;;;;44.75;35.00;;;;;5.44;60.91;-277.22;5033533;28;45542;-90
2022/12/14 09:38:50;;;;;;;;;46.50;36.25;;;;;5.62;60.59;-606.31;5029340;28;45625;-92
2022/12/14 09:41:23;;;;;;;;;35.00;32.50;;;;;6.03;60.08;385.56;5016864;28;45501;-94
2022/12/14 09:44:11;;;;;;;;;33.25;31.75;;;;;5.53;60.39;-606.69;5026396;28;45803;-90
2022/12/14 09:47:06;;;;;;;;;31.25;29.50;;;;;6.14;60.67;-604.34;5044911;28;45932;-89
2022/12/14 09:49:53;;;;;;;;;17.75;16.50;;;;;5.67;60.08;-276.25;5038342;28;45585;-88
2022/12/14 09:52:22;;;;;;;;;44.75;39.50;;;;;5.86;60.42;-605.41;5036301;28;45427;-92
2022/12/14 09:54:49;;;;;;;;;42.50;36.00;;;;;6.25;60.11;-603.91;5039117;28;45601;-90
2022/12/14 09:57:41;;;;;;;;;37.00;34.25;;;;;6.37;60.37;-603.50;5038850;28;45237;-92
2022/12/14 10:00:18;;;;;;;;;35.25;33.75;;;;;6.26;60.18;56.53;5028490;28;45690;-94
2022/12/14 10:03:21;;;;;;;;;37.50;34.25;;;;;6.45;59.68;-272.84;5025681;28;45427;-88
2022/12/14 10:06:16;;;;;;;;;39.00;32.75;;;;;6.50;59.58;57.75;5015492;28;47251;-90
2022/12/14 10:09:06;;;;;;;;;31.75;31.50;;;;;6.07;58.62;716.00;5032031;28;45377;-92
2022/12/14 10:11:45;;;;;;;;;31.25;26.50;;;;;6.64;59.01;719.38;5037192;28;45363;-93
2022/12/14 10:14:39;;;;;;;;;39.25;33.75;;;;;6.70;58.39;1050.28;5011073;28;45432;-87
2022/12/14 10:17:19;;;;;;;;;34.25;27.75;;;;;6.79;58.37;1050.84;5025306;28;45476;-95
2022/12/14 10:20:16;;;;;;;;;40.25;35.75;;;;;6.80;58.25;1381.59;5040905;28;45540;-93
2022/12/14 10:22:48;;;;;;;;;40.00;33.00;;;;;6.78;57.81;1381.44;5017887;28;45529;-92
2022/12/14 10:25:25;;;;;;;;;44.50;36.00;;;;;6.94;58.28;1051.84;5048262;28;45545;-96
2022/12/14 10:28:05;;;;;;;;;43.25;34.00;;;;;6.04;58.04;1706.50;5281843;22;47257;-86
2022/12/14 10:30:31;;;;;;;;;39.25;35.75;;;;;6.19;57.63;2037.97;5056301;28;45563;-84
2022/12/14 10:33:21;;;;;;;;;41.75;35.50;;;;;7.08;57.47;2045.22;5048178;28;45577;-84
2022/12/14 10:35:53;;;;;;;;;36.00;32.25;;;;;7.14;57.29;2045.69;5035755;28;45562;-85
2022/12/14 10:38:26;;;;;;;;;44.00;35.50;;;;;6.00;57.28;2366.78;5041622;28;48229;-86
2022/12/14 10:40:56;;;;;;;;;40.50;34.50;;;;;7.00;57.07;2375.41;5043828;28;45513;-85
2022/12/14 10:43:43;;;;;;;;;46.75;38.75;;;;;7.08;57.47;2376.06;5045789;28;45348;-85
2022/12/14 10:46:37;;;;;;;;;49.25;37.50;;;;;7.03;56.92;3368.31;5054027;28;45467;-85
2022/12/14 10:49:15;;;;;;;;;41.25;34.25;;;;;7.03;57.14;3368.38;5029408;28;48252;-85
2022/12/14 10:51:42;;;;;;;;;38.00;33.25;;;;;7.00;57.17;4029.97;5052897;28;45411;-88
2022/12/14 10:54:21;;;;;;;;;47.75;38.25;;;;;6.65;57.06;4025.97;5044771;28;45628;-85
2022/12/14 10:56:48;;;;;;;;;38.75;33.50;;;;;6.93;57.30;3367.31;5043596;28;45664;-85
2022/12/14 10:59:20;;;;;;;;;40.75;36.50;;;;;6.97;57.44;3698.69;5043318;28;47832;-86
2022/12/14 11:01:53;;;;;;;;;47.75;37.75;;;;;5.25;56.97;3680.25;5038032;28;45605;-86
2022/12/14 11:05:08;;;;;;;;;42.50;35.00;;;;;7.00;57.12;3699.00;5043162;28;45472;-87
2022/12/14 11:07:41;;;;;;;;;47.00;38.25;;;;;6.93;57.43;2705.59;5048024;28;45569;-86
2022/12/14 11:10:16;;;;;;;;;40.00;33.50;;;;;7.13;57.12;3700.44;5020171;28;47213;-84
2022/12/14 11:13:00;;;;;;;;;42.75;35.75;;;;;7.16;56.56;4031.84;5041586;28;45475;-87
2022/12/14 11:15:30;;;;;;;;;41.25;36.75;;;;;7.21;56.69;3370.22;5042963;28;45478;-87
2022/12/14 11:18:11;;;;;;;;;37.75;34.25;;;;;7.21;56.13;4363.47;5047379;28;45644;-88
2022/12/14 11:27:23;;;;;;;;;34.50;33.00;;;;;7.28;55.89;5357.88;5057914;28;45491;-84
2022/12/14 11:29:50;;;;;;;;;39.75;31.75;;;;;6.68;55.46;5680.81;5038560;28;46123;-82
2022/12/14 11:32:22;;;;;;;;;38.00;31.25;;;;;6.32;54.94;6999.13;5045713;28;47257;-83
2022/12/14 11:35:23;;;;;;;;;36.50;32.75;;;;;7.29;54.40;8009.06;5042400;28;45471;-83
2022/12/14 11:40:46;;;;;;;;;40.25;33.00;;;;;6.81;54.27;8000.50;5048163;28;45368;-80
2022/12/14 11:43:26;;;;;;;;;39.00;35.00;;;;;7.49;54.11;8012.50;5051314;28;46995;-80
2022/12/14 11:45:54;;;;;;;;;40.00;33.00;;;;;7.54;54.04;8676.81;5049806;28;45557;-81
2022/12/14 11:48:26;;;;;;;;;34.50;33.00;;;;;7.58;53.03;9672.78;5046746;28;45569;-79
2022/12/14 11:51:16;;;;;;;;;29.75;25.75;;;;;7.62;53.35;9341.75;5043730;28;46361;-82
2022/12/14 11:53:42;;;;;;;;;39.25;34.25;;;;;7.56;53.34;9340.63;5028213;28;47234;-80
2022/12/14 11:56:14;;;;;;;;;41.00;34.00;;;;;7.44;53.20;9006.41;5046298;28;45525;-81
2022/12/14 11:58:50;;;;;;;;;38.75;33.00;;;;;7.50;53.40;9007.69;5046831;28;45482;-80
2022/12/14 12:01:32;;;;;;;;;37.25;33.00;;;;;7.48;53.07;8675.56;5043639;28;45644;-82
2022/12/14 12:03:58;;;;;;;;;38.00;32.25;;;;;7.35;53.22;9004.81;5027181;28;48111;-84
2022/12/14 12:06:26;;;;;;;;;38.00;31.25;;;;;8.00;52.94;9681.41;5038585;28;45599;-84
2022/12/14 12:09:01;;;;;;;;;45.25;35.25;;;;;7.08;53.06;9662.44;5041421;28;45644;-87
2022/12/14 12:11:29;;;;;;;;;40.25;35.00;;;;;8.03;52.46;10678.22;5049728;28;45513;-87
2022/12/14 12:15:01;;;;;;;;;;;;;;;;;;;;;